sensor_id;sensor_type;location;lat;lon;timestamp;P1;durP1;ratioP1;P2;durP2;ratioP2
9665;SDS011;4871;52.004;5.924;2022-10-16T00:00:00;2.90;;;2.50;;
9665;SDS011;4871;52.004;5.924;2022-10-16T00:01:08;2.90;;;2.50;;
9665;SDS011;4871;52.004;5.924;2022-10-16T00:02:00;2.90;;;2.50;;
9665;SDS011;4871;52.004;5.924;2022-10-16T00:03:00;2.90;;;2.50;;
9665;SDS011;4871;52.004;5.924;2022-10-16T00:04:00;2.90;;;2.50;;
9665;SDS011;4871;52.004;5.924;2022-10-16T00:05:00;2.90;;;2.50;;
9665;SDS011;4871;52.004;5.924;2022-10-16T00:06:00;2.90;;;2.50;;
9665;SDS011;4871;52.004;5.924;2022-10-16T00:07:00;2.90;;;2.50;;
9665;SDS011;4871;52.004;5.924;2022-10-16T00:08:00;2.90;;;2.50;;
9665;SDS011;4871;52.004;5.924;2022-10-16T00:09:00;2.90;;;2.50;;
9665;SDS011;4871;52.004;5.924;2022-10-16T00:10:00;2.90;;;2.50;;
9665;SDS011;4871;52.004;5.924;2022-10-16T00:11:01;2.90;;;2.50;;
9665;SDS011;4871;52.004;5.924;2022-10-16T00:12:00;2.90;;;2.50;;
9665;SDS011;4871;52.004;5.924;2022-10-16T00:13:00;2.90;;;2.50;;
9665;SDS011;4871;52.004;5.924;2022-10-16T00:14:00;2.90;;;2.50;;
9665;SDS011;4871;52.004;5.924;2022-10-16T00:15:00;4.30;;;2.40;;
9665;SDS011;4871;52.004;5.924;2022-10-16T00:16:00;4.30;;;2.40;;
9665;SDS011;4871;52.004;5.924;2022-10-16T00:17:00;4.30;;;2.40;;
9665;SDS011;4871;52.004;5.924;2022-10-16T00:18:00;4.30;;;2.40;;
9665;SDS011;4871;52.004;5.924;2022-10-16T00:19:00;4.30;;;2.40;;
9665;SDS011;4871;52.004;5.924;2022-10-16T00:20:00;4.30;;;2.40;;
9665;SDS011;4871;52.004;5.924;2022-10-16T00:21:02;4.30;;;2.40;;
9665;SDS011;4871;52.004;5.924;2022-10-16T00:22:00;4.30;;;2.40;;
9665;SDS011;4871;52.004;5.924;2022-10-16T00:23:00;4.30;;;2.40;;
9665;SDS011;4871;52.004;5.924;2022-10-16T00:24:02;4.30;;;2.40;;
9665;SDS011;4871;52.004;5.924;2022-10-16T00:25:00;4.30;;;2.40;;
9665;SDS011;4871;52.004;5.924;2022-10-16T00:26:01;4.30;;;2.40;;
9665;SDS011;4871;52.004;5.924;2022-10-16T00:27:00;4.30;;;2.40;;
9665;SDS011;4871;52.004;5.924;2022-10-16T00:28:00;4.30;;;2.40;;
9665;SDS011;4871;52.004;5.924;2022-10-16T00:29:00;4.30;;;2.40;;
9665;SDS011;4871;52.004;5.924;2022-10-16T00:30:00;4.30;;;2.40;;
9665;SDS011;4871;52.004;5.924;2022-10-16T00:31:02;4.30;;;2.40;;
9665;SDS011;4871;52.004;5.924;2022-10-16T00:32:00;4.30;;;2.40;;
9665;SDS011;4871;52.004;5.924;2022-10-16T00:33:00;4.30;;;2.40;;
9665;SDS011;4871;52.004;5.924;2022-10-16T00:34:00;4.30;;;2.40;;
9665;SDS011;4871;52.004;5.924;2022-10-16T00:35:00;4.30;;;2.40;;
9665;SDS011;4871;52.004;5.924;2022-10-16T00:36:00;4.30;;;2.40;;
9665;SDS011;4871;52.004;5.924;2022-10-16T00:37:00;4.30;;;2.40;;
9665;SDS011;4871;52.004;5.924;2022-10-16T00:38:00;4.30;;;2.40;;
9665;SDS011;4871;52.004;5.924;2022-10-16T00:39:01;4.30;;;2.40;;
9665;SDS011;4871;52.004;5.924;2022-10-16T00:40:00;4.30;;;2.40;;
9665;SDS011;4871;52.004;5.924;2022-10-16T00:41:00;4.30;;;2.40;;
9665;SDS011;4871;52.004;5.924;2022-10-16T00:42:00;4.30;;;2.40;;
9665;SDS011;4871;52.004;5.924;2022-10-16T00:43:00;4.30;;;2.40;;
9665;SDS011;4871;52.004;5.924;2022-10-16T00:44:01;4.30;;;2.40;;
9665;SDS011;4871;52.004;5.924;2022-10-16T00:45:00;7.40;;;2.50;;
9665;SDS011;4871;52.004;5.924;2022-10-16T00:46:00;7.40;;;2.50;;
9665;SDS011;4871;52.004;5.924;2022-10-16T00:47:00;7.40;;;2.50;;
9665;SDS011;4871;52.004;5.924;2022-10-16T00:48:00;7.40;;;2.50;;
9665;SDS011;4871;52.004;5.924;2022-10-16T00:49:01;7.40;;;2.50;;
9665;SDS011;4871;52.004;5.924;2022-10-16T00:50:04;7.40;;;2.50;;
9665;SDS011;4871;52.004;5.924;2022-10-16T00:51:00;7.40;;;2.50;;
9665;SDS011;4871;52.004;5.924;2022-10-16T00:52:00;7.40;;;2.50;;
9665;SDS011;4871;52.004;5.924;2022-10-16T00:53:00;7.40;;;2.50;;
9665;SDS011;4871;52.004;5.924;2022-10-16T00:54:00;7.40;;;2.50;;
9665;SDS011;4871;52.004;5.924;2022-10-16T00:55:00;7.40;;;2.50;;
9665;SDS011;4871;52.004;5.924;2022-10-16T00:56:00;7.40;;;2.50;;
9665;SDS011;4871;52.004;5.924;2022-10-16T00:57:01;7.40;;;2.50;;
9665;SDS011;4871;52.004;5.924;2022-10-16T00:58:00;7.40;;;2.50;;
9665;SDS011;4871;52.004;5.924;2022-10-16T00:59:01;7.40;;;2.50;;
9665;SDS011;4871;52.004;5.924;2022-10-16T01:00:00;7.40;;;2.50;;
9665;SDS011;4871;52.004;5.924;2022-10-16T01:01:00;7.40;;;2.50;;
9665;SDS011;4871;52.004;5.924;2022-10-16T01:02:00;7.40;;;2.50;;
9665;SDS011;4871;52.004;5.924;2022-10-16T01:03:00;7.40;;;2.50;;
9665;SDS011;4871;52.004;5.924;2022-10-16T01:04:00;7.40;;;2.50;;
9665;SDS011;4871;52.004;5.924;2022-10-16T01:05:00;7.40;;;2.50;;
9665;SDS011;4871;52.004;5.924;2022-10-16T01:08:17;7.40;;;2.50;;
9665;SDS011;4871;52.004;5.924;2022-10-16T01:09:03;7.40;;;2.50;;
9665;SDS011;4871;52.004;5.924;2022-10-16T01:10:10;7.40;;;2.50;;
9665;SDS011;4871;52.004;5.924;2022-10-16T01:11:02;7.40;;;2.50;;
9665;SDS011;4871;52.004;5.924;2022-10-16T01:12:04;7.40;;;2.50;;
9665;SDS011;4871;52.004;5.924;2022-10-16T01:13:04;7.40;;;2.50;;
9665;SDS011;4871;52.004;5.924;2022-10-16T01:14:01;7.40;;;2.50;;
9665;SDS011;4871;52.004;5.924;2022-10-16T01:15:04;3.10;;;2.20;;
9665;SDS011;4871;52.004;5.924;2022-10-16T01:16:02;3.10;;;2.20;;
9665;SDS011;4871;52.004;5.924;2022-10-16T01:17:01;3.10;;;2.20;;
9665;SDS011;4871;52.004;5.924;2022-10-16T01:18:01;3.10;;;2.20;;
9665;SDS011;4871;52.004;5.924;2022-10-16T01:20:04;3.10;;;2.20;;
9665;SDS011;4871;52.004;5.924;2022-10-16T01:22:00;3.10;;;2.20;;
9665;SDS011;4871;52.004;5.924;2022-10-16T01:25:00;3.10;;;2.20;;
9665;SDS011;4871;52.004;5.924;2022-10-16T01:28:00;3.10;;;2.20;;
9665;SDS011;4871;52.004;5.924;2022-10-16T01:29:03;3.10;;;2.20;;
9665;SDS011;4871;52.004;5.924;2022-10-16T01:31:00;3.10;;;2.20;;
9665;SDS011;4871;52.004;5.924;2022-10-16T01:32:01;3.10;;;2.20;;
9665;SDS011;4871;52.004;5.924;2022-10-16T01:33:02;3.10;;;2.20;;
9665;SDS011;4871;52.004;5.924;2022-10-16T01:34:05;3.10;;;2.20;;
9665;SDS011;4871;52.004;5.924;2022-10-16T01:35:09;3.10;;;2.20;;
9665;SDS011;4871;52.004;5.924;2022-10-16T01:36:02;3.10;;;2.20;;
9665;SDS011;4871;52.004;5.924;2022-10-16T01:37:02;3.10;;;2.20;;
9665;SDS011;4871;52.004;5.924;2022-10-16T01:38:03;3.10;;;2.20;;
9665;SDS011;4871;52.004;5.924;2022-10-16T01:39:00;3.10;;;2.20;;
9665;SDS011;4871;52.004;5.924;2022-10-16T01:40:00;3.10;;;2.20;;
9665;SDS011;4871;52.004;5.924;2022-10-16T01:41:01;3.10;;;2.20;;
9665;SDS011;4871;52.004;5.924;2022-10-16T01:42:03;3.10;;;2.20;;
9665;SDS011;4871;52.004;5.924;2022-10-16T01:43:01;3.10;;;2.20;;
9665;SDS011;4871;52.004;5.924;2022-10-16T01:44:02;3.10;;;2.20;;
9665;SDS011;4871;52.004;5.924;2022-10-16T01:45:00;3.30;;;2.70;;
9665;SDS011;4871;52.004;5.924;2022-10-16T01:46:00;3.30;;;2.70;;
9665;SDS011;4871;52.004;5.924;2022-10-16T01:47:00;3.30;;;2.70;;
9665;SDS011;4871;52.004;5.924;2022-10-16T01:48:00;3.30;;;2.70;;
9665;SDS011;4871;52.004;5.924;2022-10-16T01:49:00;3.30;;;2.70;;
9665;SDS011;4871;52.004;5.924;2022-10-16T01:50:00;3.30;;;2.70;;
9665;SDS011;4871;52.004;5.924;2022-10-16T01:51:02;3.30;;;2.70;;
9665;SDS011;4871;52.004;5.924;2022-10-16T01:52:00;3.30;;;2.70;;
9665;SDS011;4871;52.004;5.924;2022-10-16T01:53:00;3.30;;;2.70;;
9665;SDS011;4871;52.004;5.924;2022-10-16T01:54:00;3.30;;;2.70;;
9665;SDS011;4871;52.004;5.924;2022-10-16T01:55:00;3.30;;;2.70;;
9665;SDS011;4871;52.004;5.924;2022-10-16T01:56:00;3.30;;;2.70;;
9665;SDS011;4871;52.004;5.924;2022-10-16T01:57:00;3.30;;;2.70;;
9665;SDS011;4871;52.004;5.924;2022-10-16T01:58:00;3.30;;;2.70;;
9665;SDS011;4871;52.004;5.924;2022-10-16T01:59:02;3.30;;;2.70;;
9665;SDS011;4871;52.004;5.924;2022-10-16T02:00:01;3.30;;;2.70;;
9665;SDS011;4871;52.004;5.924;2022-10-16T02:01:00;3.30;;;2.70;;
9665;SDS011;4871;52.004;5.924;2022-10-16T02:02:01;3.30;;;2.70;;
9665;SDS011;4871;52.004;5.924;2022-10-16T02:03:00;3.30;;;2.70;;
9665;SDS011;4871;52.004;5.924;2022-10-16T02:04:02;3.30;;;2.70;;
9665;SDS011;4871;52.004;5.924;2022-10-16T02:05:05;3.30;;;2.70;;
9665;SDS011;4871;52.004;5.924;2022-10-16T02:06:00;3.30;;;2.70;;
9665;SDS011;4871;52.004;5.924;2022-10-16T02:07:00;3.30;;;2.70;;
9665;SDS011;4871;52.004;5.924;2022-10-16T02:08:00;3.30;;;2.70;;
9665;SDS011;4871;52.004;5.924;2022-10-16T02:09:00;3.30;;;2.70;;
9665;SDS011;4871;52.004;5.924;2022-10-16T02:10:00;3.30;;;2.70;;
9665;SDS011;4871;52.004;5.924;2022-10-16T02:11:00;3.30;;;2.70;;
9665;SDS011;4871;52.004;5.924;2022-10-16T02:12:05;3.30;;;2.70;;
9665;SDS011;4871;52.004;5.924;2022-10-16T02:14:14;3.30;;;2.70;;
9665;SDS011;4871;52.004;5.924;2022-10-16T02:15:00;2.80;;;2.50;;
9665;SDS011;4871;52.004;5.924;2022-10-16T02:16:00;2.80;;;2.50;;
9665;SDS011;4871;52.004;5.924;2022-10-16T02:17:00;2.80;;;2.50;;
9665;SDS011;4871;52.004;5.924;2022-10-16T02:18:00;2.80;;;2.50;;
9665;SDS011;4871;52.004;5.924;2022-10-16T02:19:00;2.80;;;2.50;;
9665;SDS011;4871;52.004;5.924;2022-10-16T02:20:00;2.80;;;2.50;;
9665;SDS011;4871;52.004;5.924;2022-10-16T02:21:04;2.80;;;2.50;;
9665;SDS011;4871;52.004;5.924;2022-10-16T02:22:00;2.80;;;2.50;;
9665;SDS011;4871;52.004;5.924;2022-10-16T02:23:00;2.80;;;2.50;;
9665;SDS011;4871;52.004;5.924;2022-10-16T02:24:03;2.80;;;2.50;;
9665;SDS011;4871;52.004;5.924;2022-10-16T02:26:00;2.80;;;2.50;;
9665;SDS011;4871;52.004;5.924;2022-10-16T02:28:01;2.80;;;2.50;;
9665;SDS011;4871;52.004;5.924;2022-10-16T02:29:02;2.80;;;2.50;;
9665;SDS011;4871;52.004;5.924;2022-10-16T02:31:01;2.80;;;2.50;;
9665;SDS011;4871;52.004;5.924;2022-10-16T02:32:00;2.80;;;2.50;;
9665;SDS011;4871;52.004;5.924;2022-10-16T02:33:00;2.80;;;2.50;;
9665;SDS011;4871;52.004;5.924;2022-10-16T02:34:00;2.80;;;2.50;;
9665;SDS011;4871;52.004;5.924;2022-10-16T02:35:00;2.80;;;2.50;;
9665;SDS011;4871;52.004;5.924;2022-10-16T02:36:00;2.80;;;2.50;;
9665;SDS011;4871;52.004;5.924;2022-10-16T02:37:00;2.80;;;2.50;;
9665;SDS011;4871;52.004;5.924;2022-10-16T02:38:00;2.80;;;2.50;;
9665;SDS011;4871;52.004;5.924;2022-10-16T02:39:01;2.80;;;2.50;;
9665;SDS011;4871;52.004;5.924;2022-10-16T02:40:00;2.80;;;2.50;;
9665;SDS011;4871;52.004;5.924;2022-10-16T02:41:00;2.80;;;2.50;;
9665;SDS011;4871;52.004;5.924;2022-10-16T02:42:00;2.80;;;2.50;;
9665;SDS011;4871;52.004;5.924;2022-10-16T02:43:00;2.80;;;2.50;;
9665;SDS011;4871;52.004;5.924;2022-10-16T02:44:00;2.80;;;2.50;;
9665;SDS011;4871;52.004;5.924;2022-10-16T02:45:00;2.80;;;2.30;;
9665;SDS011;4871;52.004;5.924;2022-10-16T02:46:00;2.80;;;2.30;;
9665;SDS011;4871;52.004;5.924;2022-10-16T02:47:00;2.80;;;2.30;;
9665;SDS011;4871;52.004;5.924;2022-10-16T02:48:00;2.80;;;2.30;;
9665;SDS011;4871;52.004;5.924;2022-10-16T02:49:00;2.80;;;2.30;;
9665;SDS011;4871;52.004;5.924;2022-10-16T02:50:00;2.80;;;2.30;;
9665;SDS011;4871;52.004;5.924;2022-10-16T02:51:00;2.80;;;2.30;;
9665;SDS011;4871;52.004;5.924;2022-10-16T02:52:00;2.80;;;2.30;;
9665;SDS011;4871;52.004;5.924;2022-10-16T02:53:00;2.80;;;2.30;;
9665;SDS011;4871;52.004;5.924;2022-10-16T02:54:01;2.80;;;2.30;;
9665;SDS011;4871;52.004;5.924;2022-10-16T02:55:00;2.80;;;2.30;;
9665;SDS011;4871;52.004;5.924;2022-10-16T02:56:00;2.80;;;2.30;;
9665;SDS011;4871;52.004;5.924;2022-10-16T02:57:00;2.80;;;2.30;;
9665;SDS011;4871;52.004;5.924;2022-10-16T02:58:00;2.80;;;2.30;;
9665;SDS011;4871;52.004;5.924;2022-10-16T02:59:00;2.80;;;2.30;;
9665;SDS011;4871;52.004;5.924;2022-10-16T03:00:00;2.80;;;2.30;;
9665;SDS011;4871;52.004;5.924;2022-10-16T03:01:00;2.80;;;2.30;;
9665;SDS011;4871;52.004;5.924;2022-10-16T03:02:00;2.80;;;2.30;;
9665;SDS011;4871;52.004;5.924;2022-10-16T03:03:00;2.80;;;2.30;;
9665;SDS011;4871;52.004;5.924;2022-10-16T03:04:00;2.80;;;2.30;;
9665;SDS011;4871;52.004;5.924;2022-10-16T03:05:00;2.80;;;2.30;;
9665;SDS011;4871;52.004;5.924;2022-10-16T03:06:00;2.80;;;2.30;;
9665;SDS011;4871;52.004;5.924;2022-10-16T03:07:00;2.80;;;2.30;;
9665;SDS011;4871;52.004;5.924;2022-10-16T03:08:00;2.80;;;2.30;;
9665;SDS011;4871;52.004;5.924;2022-10-16T03:09:00;2.80;;;2.30;;
9665;SDS011;4871;52.004;5.924;2022-10-16T03:10:00;2.80;;;2.30;;
9665;SDS011;4871;52.004;5.924;2022-10-16T03:11:00;2.80;;;2.30;;
9665;SDS011;4871;52.004;5.924;2022-10-16T03:12:00;2.80;;;2.30;;
9665;SDS011;4871;52.004;5.924;2022-10-16T03:13:00;2.80;;;2.30;;
9665;SDS011;4871;52.004;5.924;2022-10-16T03:14:00;2.80;;;2.30;;
9665;SDS011;4871;52.004;5.924;2022-10-16T03:15:00;3.30;;;2.10;;
9665;SDS011;4871;52.004;5.924;2022-10-16T03:16:00;3.30;;;2.10;;
9665;SDS011;4871;52.004;5.924;2022-10-16T03:17:00;3.30;;;2.10;;
9665;SDS011;4871;52.004;5.924;2022-10-16T03:18:00;3.30;;;2.10;;
9665;SDS011;4871;52.004;5.924;2022-10-16T03:19:00;3.30;;;2.10;;
9665;SDS011;4871;52.004;5.924;2022-10-16T03:20:00;3.30;;;2.10;;
9665;SDS011;4871;52.004;5.924;2022-10-16T03:21:00;3.30;;;2.10;;
9665;SDS011;4871;52.004;5.924;2022-10-16T03:22:00;3.30;;;2.10;;
9665;SDS011;4871;52.004;5.924;2022-10-16T03:23:00;3.30;;;2.10;;
9665;SDS011;4871;52.004;5.924;2022-10-16T03:24:00;3.30;;;2.10;;
9665;SDS011;4871;52.004;5.924;2022-10-16T03:25:00;3.30;;;2.10;;
9665;SDS011;4871;52.004;5.924;2022-10-16T03:26:00;3.30;;;2.10;;
9665;SDS011;4871;52.004;5.924;2022-10-16T03:27:00;3.30;;;2.10;;
9665;SDS011;4871;52.004;5.924;2022-10-16T03:28:00;3.30;;;2.10;;
9665;SDS011;4871;52.004;5.924;2022-10-16T03:29:00;3.30;;;2.10;;
9665;SDS011;4871;52.004;5.924;2022-10-16T03:30:00;3.30;;;2.10;;
9665;SDS011;4871;52.004;5.924;2022-10-16T03:31:00;3.30;;;2.10;;
9665;SDS011;4871;52.004;5.924;2022-10-16T03:32:00;3.30;;;2.10;;
9665;SDS011;4871;52.004;5.924;2022-10-16T03:33:00;3.30;;;2.10;;
9665;SDS011;4871;52.004;5.924;2022-10-16T03:34:00;3.30;;;2.10;;
9665;SDS011;4871;52.004;5.924;2022-10-16T03:35:00;3.30;;;2.10;;
9665;SDS011;4871;52.004;5.924;2022-10-16T03:36:00;3.30;;;2.10;;
9665;SDS011;4871;52.004;5.924;2022-10-16T03:37:00;3.30;;;2.10;;
9665;SDS011;4871;52.004;5.924;2022-10-16T03:38:00;3.30;;;2.10;;
9665;SDS011;4871;52.004;5.924;2022-10-16T03:39:00;3.30;;;2.10;;
9665;SDS011;4871;52.004;5.924;2022-10-16T03:40:00;3.30;;;2.10;;
9665;SDS011;4871;52.004;5.924;2022-10-16T03:41:00;3.30;;;2.10;;
9665;SDS011;4871;52.004;5.924;2022-10-16T03:42:00;3.30;;;2.10;;
9665;SDS011;4871;52.004;5.924;2022-10-16T03:43:00;3.30;;;2.10;;
9665;SDS011;4871;52.004;5.924;2022-10-16T03:44:00;3.30;;;2.10;;
9665;SDS011;4871;52.004;5.924;2022-10-16T03:45:00;6.20;;;2.30;;
9665;SDS011;4871;52.004;5.924;2022-10-16T03:46:00;6.20;;;2.30;;
9665;SDS011;4871;52.004;5.924;2022-10-16T03:47:00;6.20;;;2.30;;
9665;SDS011;4871;52.004;5.924;2022-10-16T03:48:00;6.20;;;2.30;;
9665;SDS011;4871;52.004;5.924;2022-10-16T03:49:00;6.20;;;2.30;;
9665;SDS011;4871;52.004;5.924;2022-10-16T03:50:00;6.20;;;2.30;;
9665;SDS011;4871;52.004;5.924;2022-10-16T03:51:00;6.20;;;2.30;;
9665;SDS011;4871;52.004;5.924;2022-10-16T03:52:00;6.20;;;2.30;;
9665;SDS011;4871;52.004;5.924;2022-10-16T03:53:00;6.20;;;2.30;;
9665;SDS011;4871;52.004;5.924;2022-10-16T03:54:00;6.20;;;2.30;;
9665;SDS011;4871;52.004;5.924;2022-10-16T03:55:00;6.20;;;2.30;;
9665;SDS011;4871;52.004;5.924;2022-10-16T03:56:00;6.20;;;2.30;;
9665;SDS011;4871;52.004;5.924;2022-10-16T03:57:00;6.20;;;2.30;;
9665;SDS011;4871;52.004;5.924;2022-10-16T03:58:00;6.20;;;2.30;;
9665;SDS011;4871;52.004;5.924;2022-10-16T03:59:00;6.20;;;2.30;;
9665;SDS011;4871;52.004;5.924;2022-10-16T04:00:00;6.20;;;2.30;;
9665;SDS011;4871;52.004;5.924;2022-10-16T04:01:00;6.20;;;2.30;;
9665;SDS011;4871;52.004;5.924;2022-10-16T04:02:00;6.20;;;2.30;;
9665;SDS011;4871;52.004;5.924;2022-10-16T04:03:00;6.20;;;2.30;;
9665;SDS011;4871;52.004;5.924;2022-10-16T04:04:00;6.20;;;2.30;;
9665;SDS011;4871;52.004;5.924;2022-10-16T04:05:00;6.20;;;2.30;;
9665;SDS011;4871;52.004;5.924;2022-10-16T04:06:00;6.20;;;2.30;;
9665;SDS011;4871;52.004;5.924;2022-10-16T04:07:00;6.20;;;2.30;;
9665;SDS011;4871;52.004;5.924;2022-10-16T04:08:00;6.20;;;2.30;;
9665;SDS011;4871;52.004;5.924;2022-10-16T04:09:00;6.20;;;2.30;;
9665;SDS011;4871;52.004;5.924;2022-10-16T04:10:00;6.20;;;2.30;;
9665;SDS011;4871;52.004;5.924;2022-10-16T04:11:00;6.20;;;2.30;;
9665;SDS011;4871;52.004;5.924;2022-10-16T04:12:00;6.20;;;2.30;;
9665;SDS011;4871;52.004;5.924;2022-10-16T04:13:00;6.20;;;2.30;;
9665;SDS011;4871;52.004;5.924;2022-10-16T04:14:00;6.20;;;2.30;;
9665;SDS011;4871;52.004;5.924;2022-10-16T04:15:00;3.70;;;2.00;;
9665;SDS011;4871;52.004;5.924;2022-10-16T04:16:00;3.70;;;2.00;;
9665;SDS011;4871;52.004;5.924;2022-10-16T04:17:00;3.70;;;2.00;;
9665;SDS011;4871;52.004;5.924;2022-10-16T04:18:00;3.70;;;2.00;;
9665;SDS011;4871;52.004;5.924;2022-10-16T04:19:00;3.70;;;2.00;;
9665;SDS011;4871;52.004;5.924;2022-10-16T04:20:00;3.70;;;2.00;;
9665;SDS011;4871;52.004;5.924;2022-10-16T04:21:07;3.70;;;2.00;;
9665;SDS011;4871;52.004;5.924;2022-10-16T04:22:00;3.70;;;2.00;;
9665;SDS011;4871;52.004;5.924;2022-10-16T04:23:00;3.70;;;2.00;;
9665;SDS011;4871;52.004;5.924;2022-10-16T04:24:00;3.70;;;2.00;;
9665;SDS011;4871;52.004;5.924;2022-10-16T04:25:00;3.70;;;2.00;;
9665;SDS011;4871;52.004;5.924;2022-10-16T04:26:00;3.70;;;2.00;;
9665;SDS011;4871;52.004;5.924;2022-10-16T04:27:00;3.70;;;2.00;;
9665;SDS011;4871;52.004;5.924;2022-10-16T04:28:00;3.70;;;2.00;;
9665;SDS011;4871;52.004;5.924;2022-10-16T04:29:00;3.70;;;2.00;;
9665;SDS011;4871;52.004;5.924;2022-10-16T04:30:00;3.70;;;2.00;;
9665;SDS011;4871;52.004;5.924;2022-10-16T04:31:00;3.70;;;2.00;;
9665;SDS011;4871;52.004;5.924;2022-10-16T04:32:00;3.70;;;2.00;;
9665;SDS011;4871;52.004;5.924;2022-10-16T04:33:00;3.70;;;2.00;;
9665;SDS011;4871;52.004;5.924;2022-10-16T04:34:00;3.70;;;2.00;;
9665;SDS011;4871;52.004;5.924;2022-10-16T04:35:00;3.70;;;2.00;;
9665;SDS011;4871;52.004;5.924;2022-10-16T04:36:01;3.70;;;2.00;;
9665;SDS011;4871;52.004;5.924;2022-10-16T04:37:00;3.70;;;2.00;;
9665;SDS011;4871;52.004;5.924;2022-10-16T04:38:00;3.70;;;2.00;;
9665;SDS011;4871;52.004;5.924;2022-10-16T04:39:00;3.70;;;2.00;;
9665;SDS011;4871;52.004;5.924;2022-10-16T04:40:00;3.70;;;2.00;;
9665;SDS011;4871;52.004;5.924;2022-10-16T04:41:00;3.70;;;2.00;;
9665;SDS011;4871;52.004;5.924;2022-10-16T04:42:00;3.70;;;2.00;;
9665;SDS011;4871;52.004;5.924;2022-10-16T04:43:00;3.70;;;2.00;;
9665;SDS011;4871;52.004;5.924;2022-10-16T04:44:00;3.70;;;2.00;;
9665;SDS011;4871;52.004;5.924;2022-10-16T04:45:00;1.90;;;1.70;;
9665;SDS011;4871;52.004;5.924;2022-10-16T04:46:00;1.90;;;1.70;;
9665;SDS011;4871;52.004;5.924;2022-10-16T04:47:00;1.90;;;1.70;;
9665;SDS011;4871;52.004;5.924;2022-10-16T04:48:00;1.90;;;1.70;;
9665;SDS011;4871;52.004;5.924;2022-10-16T04:49:00;1.90;;;1.70;;
9665;SDS011;4871;52.004;5.924;2022-10-16T04:50:02;1.90;;;1.70;;
9665;SDS011;4871;52.004;5.924;2022-10-16T04:51:00;1.90;;;1.70;;
9665;SDS011;4871;52.004;5.924;2022-10-16T04:52:00;1.90;;;1.70;;
9665;SDS011;4871;52.004;5.924;2022-10-16T04:53:00;1.90;;;1.70;;
9665;SDS011;4871;52.004;5.924;2022-10-16T04:54:00;1.90;;;1.70;;
9665;SDS011;4871;52.004;5.924;2022-10-16T04:55:02;1.90;;;1.70;;
9665;SDS011;4871;52.004;5.924;2022-10-16T04:56:00;1.90;;;1.70;;
9665;SDS011;4871;52.004;5.924;2022-10-16T04:57:00;1.90;;;1.70;;
9665;SDS011;4871;52.004;5.924;2022-10-16T04:58:00;1.90;;;1.70;;
9665;SDS011;4871;52.004;5.924;2022-10-16T04:59:00;1.90;;;1.70;;
9665;SDS011;4871;52.004;5.924;2022-10-16T05:00:00;1.90;;;1.70;;
9665;SDS011;4871;52.004;5.924;2022-10-16T05:01:00;1.90;;;1.70;;
9665;SDS011;4871;52.004;5.924;2022-10-16T05:02:00;1.90;;;1.70;;
9665;SDS011;4871;52.004;5.924;2022-10-16T05:03:00;1.90;;;1.70;;
9665;SDS011;4871;52.004;5.924;2022-10-16T05:04:00;1.90;;;1.70;;
9665;SDS011;4871;52.004;5.924;2022-10-16T05:05:00;1.90;;;1.70;;
9665;SDS011;4871;52.004;5.924;2022-10-16T05:06:00;1.90;;;1.70;;
9665;SDS011;4871;52.004;5.924;2022-10-16T05:07:00;1.90;;;1.70;;
9665;SDS011;4871;52.004;5.924;2022-10-16T05:08:00;1.90;;;1.70;;
9665;SDS011;4871;52.004;5.924;2022-10-16T05:09:00;1.90;;;1.70;;
9665;SDS011;4871;52.004;5.924;2022-10-16T05:10:00;1.90;;;1.70;;
9665;SDS011;4871;52.004;5.924;2022-10-16T05:11:00;1.90;;;1.70;;
9665;SDS011;4871;52.004;5.924;2022-10-16T05:12:00;1.90;;;1.70;;
9665;SDS011;4871;52.004;5.924;2022-10-16T05:13:00;1.90;;;1.70;;
9665;SDS011;4871;52.004;5.924;2022-10-16T05:14:00;3.40;;;2.20;;
9665;SDS011;4871;52.004;5.924;2022-10-16T05:15:00;3.40;;;2.20;;
9665;SDS011;4871;52.004;5.924;2022-10-16T05:16:00;3.40;;;2.20;;
9665;SDS011;4871;52.004;5.924;2022-10-16T05:17:00;3.40;;;2.20;;
9665;SDS011;4871;52.004;5.924;2022-10-16T05:18:00;3.40;;;2.20;;
9665;SDS011;4871;52.004;5.924;2022-10-16T05:19:00;3.40;;;2.20;;
9665;SDS011;4871;52.004;5.924;2022-10-16T05:20:00;3.40;;;2.20;;
9665;SDS011;4871;52.004;5.924;2022-10-16T05:21:00;3.40;;;2.20;;
9665;SDS011;4871;52.004;5.924;2022-10-16T05:22:00;3.40;;;2.20;;
9665;SDS011;4871;52.004;5.924;2022-10-16T05:23:00;3.40;;;2.20;;
9665;SDS011;4871;52.004;5.924;2022-10-16T05:24:00;3.40;;;2.20;;
9665;SDS011;4871;52.004;5.924;2022-10-16T05:25:00;3.40;;;2.20;;
9665;SDS011;4871;52.004;5.924;2022-10-16T05:26:00;3.40;;;2.20;;
9665;SDS011;4871;52.004;5.924;2022-10-16T05:27:00;3.40;;;2.20;;
9665;SDS011;4871;52.004;5.924;2022-10-16T05:28:00;3.40;;;2.20;;
9665;SDS011;4871;52.004;5.924;2022-10-16T05:29:00;3.40;;;2.20;;
9665;SDS011;4871;52.004;5.924;2022-10-16T05:30:00;3.40;;;2.20;;
9665;SDS011;4871;52.004;5.924;2022-10-16T05:31:04;3.40;;;2.20;;
9665;SDS011;4871;52.004;5.924;2022-10-16T05:32:00;3.40;;;2.20;;
9665;SDS011;4871;52.004;5.924;2022-10-16T05:33:00;3.40;;;2.20;;
9665;SDS011;4871;52.004;5.924;2022-10-16T05:34:00;3.40;;;2.20;;
9665;SDS011;4871;52.004;5.924;2022-10-16T05:35:00;3.40;;;2.20;;
9665;SDS011;4871;52.004;5.924;2022-10-16T05:36:08;3.40;;;2.20;;
9665;SDS011;4871;52.004;5.924;2022-10-16T05:37:00;3.40;;;2.20;;
9665;SDS011;4871;52.004;5.924;2022-10-16T05:38:00;3.40;;;2.20;;
9665;SDS011;4871;52.004;5.924;2022-10-16T05:39:00;3.40;;;2.20;;
9665;SDS011;4871;52.004;5.924;2022-10-16T05:40:00;3.40;;;2.20;;
9665;SDS011;4871;52.004;5.924;2022-10-16T05:41:00;3.40;;;2.20;;
9665;SDS011;4871;52.004;5.924;2022-10-16T05:42:00;3.40;;;2.20;;
9665;SDS011;4871;52.004;5.924;2022-10-16T05:43:00;3.40;;;2.20;;
9665;SDS011;4871;52.004;5.924;2022-10-16T05:44:00;2.90;;;1.90;;
9665;SDS011;4871;52.004;5.924;2022-10-16T05:45:00;2.90;;;1.90;;
9665;SDS011;4871;52.004;5.924;2022-10-16T05:46:02;2.90;;;1.90;;
9665;SDS011;4871;52.004;5.924;2022-10-16T05:47:00;2.90;;;1.90;;
9665;SDS011;4871;52.004;5.924;2022-10-16T05:48:00;2.90;;;1.90;;
9665;SDS011;4871;52.004;5.924;2022-10-16T05:49:00;2.90;;;1.90;;
9665;SDS011;4871;52.004;5.924;2022-10-16T05:50:00;2.90;;;1.90;;
9665;SDS011;4871;52.004;5.924;2022-10-16T05:51:01;2.90;;;1.90;;
9665;SDS011;4871;52.004;5.924;2022-10-16T05:52:00;2.90;;;1.90;;
9665;SDS011;4871;52.004;5.924;2022-10-16T05:53:00;2.90;;;1.90;;
9665;SDS011;4871;52.004;5.924;2022-10-16T05:54:00;2.90;;;1.90;;
9665;SDS011;4871;52.004;5.924;2022-10-16T05:55:00;2.90;;;1.90;;
9665;SDS011;4871;52.004;5.924;2022-10-16T05:56:00;2.90;;;1.90;;
9665;SDS011;4871;52.004;5.924;2022-10-16T05:57:00;2.90;;;1.90;;
9665;SDS011;4871;52.004;5.924;2022-10-16T05:58:00;2.90;;;1.90;;
9665;SDS011;4871;52.004;5.924;2022-10-16T05:59:00;2.90;;;1.90;;
9665;SDS011;4871;52.004;5.924;2022-10-16T06:00:00;2.90;;;1.90;;
9665;SDS011;4871;52.004;5.924;2022-10-16T06:01:01;2.90;;;1.90;;
9665;SDS011;4871;52.004;5.924;2022-10-16T06:02:00;2.90;;;1.90;;
9665;SDS011;4871;52.004;5.924;2022-10-16T06:03:00;2.90;;;1.90;;
9665;SDS011;4871;52.004;5.924;2022-10-16T06:04:00;2.90;;;1.90;;
9665;SDS011;4871;52.004;5.924;2022-10-16T06:05:00;2.90;;;1.90;;
9665;SDS011;4871;52.004;5.924;2022-10-16T06:06:06;2.90;;;1.90;;
9665;SDS011;4871;52.004;5.924;2022-10-16T06:07:01;2.90;;;1.90;;
9665;SDS011;4871;52.004;5.924;2022-10-16T06:08:00;2.90;;;1.90;;
9665;SDS011;4871;52.004;5.924;2022-10-16T06:09:00;2.90;;;1.90;;
9665;SDS011;4871;52.004;5.924;2022-10-16T06:10:00;2.90;;;1.90;;
9665;SDS011;4871;52.004;5.924;2022-10-16T06:11:02;2.90;;;1.90;;
9665;SDS011;4871;52.004;5.924;2022-10-16T06:12:00;2.90;;;1.90;;
9665;SDS011;4871;52.004;5.924;2022-10-16T06:13:00;2.90;;;1.90;;
9665;SDS011;4871;52.004;5.924;2022-10-16T06:14:01;2.10;;;1.90;;
9665;SDS011;4871;52.004;5.924;2022-10-16T06:15:00;2.10;;;1.90;;
9665;SDS011;4871;52.004;5.924;2022-10-16T06:16:00;2.10;;;1.90;;
9665;SDS011;4871;52.004;5.924;2022-10-16T06:17:00;2.10;;;1.90;;
9665;SDS011;4871;52.004;5.924;2022-10-16T06:18:00;2.10;;;1.90;;
9665;SDS011;4871;52.004;5.924;2022-10-16T06:19:00;2.10;;;1.90;;
9665;SDS011;4871;52.004;5.924;2022-10-16T06:20:00;2.10;;;1.90;;
9665;SDS011;4871;52.004;5.924;2022-10-16T06:21:06;2.10;;;1.90;;
9665;SDS011;4871;52.004;5.924;2022-10-16T06:22:00;2.10;;;1.90;;
9665;SDS011;4871;52.004;5.924;2022-10-16T06:23:00;2.10;;;1.90;;
9665;SDS011;4871;52.004;5.924;2022-10-16T06:24:00;2.10;;;1.90;;
9665;SDS011;4871;52.004;5.924;2022-10-16T06:25:00;2.10;;;1.90;;